nws-alerts: Checking more than four warning/county codes can delay the loading of your pages. You should use a cron job to get the data.
EllijayWeather Station Historical Data
Daily Summary for January 23, 2019 Units:  English    Metric   Both
Daily Weekly Monthly Yearly Custom
  High: Low: Average:
Temperature: 52.0 °F 38.3 °F 46.3 °F
Dew Point: 50.2 °F 20.7 °F 41.2 °F
Humidity: 98% 48% 83%
Wind Speed: 8.9mph 0.0mph 0.6mph
Wind Gust: 12.0mph - -
Wind- - SE
Pressure: 30.44 in 29.75 in -
Precipitation: 1.35 in    
Historical Graphs
 
 
Tabular Data for January 23, 2019
Time Temperature Dew Point Pressure Wind Wind Speed Wind Gust Humidity Rainfall Rate (Hourly) solar
00:04 38.7 °F 20.7 °F 30.44 in Calm   2.0 mph 48% 0.00 in meteobridge W/m2
00:09 38.8 °F 20.8 °F 30.44 in Calm   6.0 mph 48% 0.00 in meteobridge W/m2
00:14 38.8 °F 21.4 °F 30.44 in Calm   2.0 mph 49% 0.00 in meteobridge W/m2
00:19 38.8 °F 21.4 °F 30.43 in Calm   1.0 mph 49% 0.00 in meteobridge W/m2
00:24 38.8 °F 21.7 °F 30.43 in Calm   5.0 mph 50% 0.00 in meteobridge W/m2
00:29 38.8 °F 21.7 °F 30.43 in ESE 2.0 mph 6.0 mph 50% 0.00 in meteobridge W/m2
00:34 38.8 °F 21.7 °F 30.43 in Calm   9.0 mph 50% 0.00 in meteobridge W/m2
00:39 38.8 °F 21.7 °F 30.43 in East 4.0 mph 4.0 mph 50% 0.00 in meteobridge W/m2
00:44 38.7 °F 21.6 °F 30.43 in Calm   1.0 mph 50% 0.00 in meteobridge W/m2
00:49 38.7 °F 22.1 °F 30.42 in SE 2.0 mph 7.0 mph 51% 0.00 in meteobridge W/m2
00:54 38.7 °F 22.1 °F 30.42 in Calm   7.0 mph 51% 0.00 in meteobridge W/m2
00:59 38.7 °F 23.0 °F 30.42 in Calm   1.0 mph 53% 0.00 in meteobridge W/m2
01:04 38.7 °F 22.6 °F 30.43 in Calm   5.0 mph 52% 0.00 in meteobridge W/m2
01:09 38.5 °F 22.5 °F 30.42 in Calm   9.0 mph 52% 0.00 in meteobridge W/m2
01:14 38.7 °F 23.0 °F 30.42 in Calm   7.0 mph 53% 0.00 in meteobridge W/m2
01:19 38.5 °F 23.4 °F 30.42 in SE 0.9 mph 4.0 mph 54% 0.00 in meteobridge W/m2
01:24 38.5 °F 22.8 °F 30.41 in Calm   7.0 mph 53% 0.00 in meteobridge W/m2
01:29 38.5 °F 22.8 °F 30.41 in ESE 0.9 mph 6.0 mph 53% 0.00 in meteobridge W/m2
01:34 38.3 °F 22.6 °F 30.42 in Calm   5.0 mph 53% 0.00 in meteobridge W/m2
01:39 38.3 °F 22.6 °F 30.41 in SE 8.1 mph 8.0 mph 53% 0.00 in meteobridge W/m2
01:44 38.5 °F 23.7 °F 30.40 in Calm   6.0 mph 55% 0.00 in meteobridge W/m2
01:49 38.5 °F 23.7 °F 30.40 in Calm   6.0 mph 55% 0.00 in meteobridge W/m2
01:54 38.5 °F 24.6 °F 30.40 in Calm   6.0 mph 57% 0.00 in meteobridge W/m2
01:59 38.7 °F 24.8 °F 30.39 in ESE 6.0 mph 6.0 mph 57% 0.00 in meteobridge W/m2
02:04 38.7 °F 25.2 °F 30.39 in East 0.9 mph 7.0 mph 58% 0.00 in meteobridge W/m2
02:09 38.7 °F 24.8 °F 30.39 in Calm   8.0 mph 57% 0.00 in meteobridge W/m2
02:14 38.8 °F 25.3 °F 30.39 in SE 0.9 mph 4.0 mph 58% 0.00 in meteobridge W/m2
02:19 38.8 °F 25.7 °F 30.39 in SSE 0.9 mph 11.0 mph 59% 0.00 in meteobridge W/m2
02:24 39.2 °F 27.0 °F 30.38 in Calm   11.0 mph 61% 0.00 in meteobridge W/m2
02:29 39.4 °F 27.5 °F 30.38 in ESE 0.9 mph 4.0 mph 62% 0.00 in meteobridge W/m2
02:34 39.6 °F 28.8 °F 30.38 in Calm   6.0 mph 65% 0.00 in meteobridge W/m2
02:39 39.7 °F 28.9 °F 30.38 in Calm   1.0 mph 65% 0.00 in meteobridge W/m2
02:44 39.9 °F 29.5 °F 30.38 in Calm   4.0 mph 66% 0.00 in meteobridge W/m2
02:49 39.9 °F 29.8 °F 30.37 in Calm   1.0 mph 67% 0.00 in meteobridge W/m2
02:54 40.1 °F 30.4 °F 30.37 in SSE 0.9 mph 5.0 mph 68% 0.00 in meteobridge W/m2
02:59 40.5 °F 31.1 °F 30.37 in East 2.0 mph 6.0 mph 69% 0.00 in meteobridge W/m2
03:04 40.5 °F 31.1 °F 30.37 in Calm   8.0 mph 69% 0.00 in meteobridge W/m2
03:09 40.6 °F 31.6 °F 30.36 in Calm   4.0 mph 70% 0.00 in meteobridge W/m2
03:14 40.8 °F 31.8 °F 30.36 in ESE 2.0 mph 8.0 mph 70% 0.00 in meteobridge W/m2
03:19 41.0 °F 32.0 °F 30.36 in Calm   4.0 mph 70% 0.00 in meteobridge W/m2
03:24 41.2 °F 32.2 °F 30.36 in Calm   5.0 mph 70% 0.00 in meteobridge W/m2
03:29 41.4 °F 32.4 °F 30.36 in Calm   4.0 mph 70% 0.00 in meteobridge W/m2
03:34 41.4 °F 32.7 °F 30.36 in Calm   5.0 mph 71% 0.00 in meteobridge W/m2
03:39 41.4 °F 32.7 °F 30.36 in SE 0.9 mph 5.0 mph 71% 0.00 in meteobridge W/m2
03:44 41.4 °F 33.1 °F 30.35 in SE 2.0 mph 7.0 mph 72% 0.00 in meteobridge W/m2
03:49 41.5 °F 33.3 °F 30.34 in ESE 2.0 mph 12.0 mph 72% 0.00 in meteobridge W/m2
03:54 41.7 °F 33.4 °F 30.34 in SE 4.9 mph 6.0 mph 72% 0.00 in meteobridge W/m2
03:59 41.7 °F 33.4 °F 30.34 in SE 0.9 mph 6.0 mph 72% 0.00 in meteobridge W/m2
04:04 41.7 °F 33.4 °F 30.34 in Calm   2.0 mph 72% 0.00 in meteobridge W/m2
04:09 41.7 °F 33.6 °F 30.34 in Calm   2.0 mph 73% 0.00 in meteobridge W/m2
04:14 41.7 °F 33.6 °F 30.33 in Calm   4.0 mph 73% 0.00 in meteobridge W/m2
04:19 41.7 °F 33.6 °F 30.34 in Calm   5.0 mph 73% 0.00 in meteobridge W/m2
04:24 41.7 °F 34.0 °F 30.33 in Calm   4.0 mph 74% 0.00 in meteobridge W/m2
04:29 41.7 °F 34.0 °F 30.33 in Calm   4.0 mph 74% 0.00 in meteobridge W/m2
04:34 41.7 °F 34.0 °F 30.32 in ESE 0.9 mph 2.0 mph 74% 0.00 in meteobridge W/m2
04:39 41.9 °F 34.5 °F 30.32 in SE 0.9 mph 1.0 mph 75% 0.00 in meteobridge W/m2
04:44 41.9 °F 34.5 °F 30.32 in SE 0.9 mph 5.0 mph 75% 0.00 in meteobridge W/m2
04:49 41.9 °F 34.2 °F 30.32 in Calm   1.0 mph 74% 0.00 in meteobridge W/m2
04:54 41.9 °F 34.5 °F 30.32 in Calm   1.0 mph 75% 0.00 in meteobridge W/m2
04:59 41.7 °F 34.3 °F 30.31 in ESE 2.0 mph 4.0 mph 75% 0.00 in meteobridge W/m2
05:04 41.9 °F 34.9 °F 30.30 in SE 2.0 mph 4.0 mph 76% 0.00 in meteobridge W/m2
05:09 42.1 °F 35.1 °F 30.30 in SE 0.9 mph 4.0 mph 76% 0.00 in meteobridge W/m2
05:14 42.3 °F 35.6 °F 30.30 in Calm   5.0 mph 77% 0.00 in meteobridge W/m2
05:19 42.3 °F 35.2 °F 30.30 in Calm   4.0 mph 76% 0.00 in meteobridge W/m2
05:24 42.1 °F 35.1 °F 30.29 in Calm   4.0 mph 76% 0.00 in meteobridge W/m2
05:29 41.9 °F 34.9 °F 30.28 in Calm     76% 0.00 in meteobridge W/m2
05:34 41.7 °F 35.1 °F 30.28 in Calm   5.0 mph 77% 0.00 in meteobridge W/m2
05:39 42.1 °F 36.0 °F 30.28 in SE 0.9 mph 2.0 mph 79% 0.00 in meteobridge W/m2
05:44 42.3 °F 36.0 °F 30.28 in Calm   4.0 mph 78% 0.00 in meteobridge W/m2
05:49 42.3 °F 36.0 °F 30.29 in Calm     78% 0.00 in meteobridge W/m2
05:54 42.4 °F 36.1 °F 30.29 in Calm   4.0 mph 78% 0.00 in meteobridge W/m2
05:59 42.4 °F 36.3 °F 30.29 in SE 2.0 mph 6.0 mph 79% 0.00 in meteobridge W/m2
06:04 42.4 °F 36.3 °F 30.29 in SE 4.0 mph 4.0 mph 79% 0.00 in meteobridge W/m2
06:09 42.4 °F 36.3 °F 30.29 in Calm     79% 0.00 in meteobridge W/m2
06:14 42.3 °F 36.1 °F 30.28 in ESE 4.9 mph 5.0 mph 79% 0.00 in meteobridge W/m2
06:18 42.4 °F 36.7 °F 30.27 in Calm   1.0 mph 80% 0.00 in meteobridge W/m2
06:24 42.3 °F 36.5 °F 30.27 in Calm   2.0 mph 80% 0.00 in meteobridge W/m2
06:29 42.6 °F 37.2 °F 30.27 in Calm   4.0 mph 81% 0.00 in meteobridge W/m2
06:34 42.6 °F 36.9 °F 30.27 in SE 2.0 mph 2.0 mph 80% 0.00 in meteobridge W/m2
06:39 42.6 °F 37.2 °F 30.27 in SE 4.0 mph 7.0 mph 81% 0.00 in meteobridge W/m2
06:44 42.6 °F 37.2 °F 30.27 in Calm   4.0 mph 81% 0.00 in meteobridge W/m2
06:49 42.6 °F 37.2 °F 30.27 in Calm   2.0 mph 81% 0.00 in meteobridge W/m2
06:54 42.4 °F 37.4 °F 30.26 in ESE 2.0 mph 2.0 mph 82% 0.00 in meteobridge W/m2
06:59 42.8 °F 37.8 °F 30.26 in Calm   5.0 mph 82% 0.00 in meteobridge W/m2
07:04 43.0 °F 38.1 °F 30.26 in ESE 2.0 mph 5.0 mph 83% 0.00 in meteobridge W/m2
07:09 43.3 °F 38.5 °F 30.25 in SE 0.9 mph 6.0 mph 83% 0.00 in meteobridge W/m2
07:14 43.3 °F 38.5 °F 30.25 in Calm     83% 0.00 in meteobridge W/m2
07:19 43.3 °F 38.5 °F 30.24 in Calm   2.0 mph 83% 0.00 in meteobridge W/m2
07:24 43.3 °F 38.8 °F 30.25 in SSE 2.0 mph 4.0 mph 84% 0.00 in meteobridge W/m2
07:29 43.3 °F 38.8 °F 30.24 in Calm   6.0 mph 84% 0.00 in meteobridge W/m2
07:34 43.3 °F 38.8 °F 30.24 in Calm   4.0 mph 84% 0.00 in meteobridge W/m2
07:39 43.2 °F 38.7 °F 30.23 in Calm   6.0 mph 84% 0.00 in meteobridge W/m2
07:44 43.2 °F 39.0 °F 30.23 in Calm   4.0 mph 85% 0.00 in meteobridge W/m2
07:49 43.2 °F 39.0 °F 30.24 in Calm   4.0 mph 85% 0.00 in meteobridge W/m2
07:54 43.0 °F 38.8 °F 30.24 in ESE 2.0 mph 4.0 mph 85% 0.00 in meteobridge W/m2
07:59 43.0 °F 38.8 °F 30.24 in Calm   1.0 mph 85% 0.00 in meteobridge W/m2
08:04 43.0 °F 39.0 °F 30.24 in Calm     86% 0.00 in meteobridge W/m2
08:09 43.0 °F 39.0 °F 30.24 in Calm   8.0 mph 86% 0.00 in meteobridge W/m2
08:14 43.2 °F 39.2 °F 30.25 in Calm   2.0 mph 86% 0.00 in meteobridge W/m2
08:19 43.3 °F 39.4 °F 30.25 in Calm   5.0 mph 86% 0.00 in meteobridge W/m2
08:24 43.5 °F 39.6 °F 30.23 in Calm   4.0 mph 86% 0.00 in meteobridge W/m2
08:29 43.9 °F 39.9 °F 30.22 in Calm   6.0 mph 86% 0.00 in meteobridge W/m2
08:34 44.1 °F 40.1 °F 30.23 in Calm   8.0 mph 86% 0.00 in meteobridge W/m2
08:39 44.4 °F 40.3 °F 30.23 in SSE 4.9 mph 6.0 mph 85% 0.00 in meteobridge W/m2
08:44 44.4 °F 40.3 °F 30.23 in ESE 2.0 mph 7.0 mph 85% 0.00 in meteobridge W/m2
08:49 44.4 °F 40.3 °F 30.23 in SE 4.0 mph 12.0 mph 85% 0.00 in meteobridge W/m2
08:54 44.4 °F 40.3 °F 30.23 in ESE 0.9 mph 2.0 mph 85% 0.00 in meteobridge W/m2
08:59 44.4 °F 40.3 °F 30.23 in SE 0.9 mph 6.0 mph 85% 0.00 in meteobridge W/m2
09:04 44.4 °F 40.5 °F 30.24 in Calm   6.0 mph 86% 0.00 in meteobridge W/m2
09:09 44.6 °F 40.6 °F 30.24 in Calm     86% 0.00 in meteobridge W/m2
09:14 44.8 °F 40.8 °F 30.24 in Calm   2.0 mph 86% 0.00 in meteobridge W/m2
09:19 45.0 °F 41.0 °F 30.23 in Calm   5.0 mph 86% 0.00 in meteobridge W/m2
09:24 45.0 °F 41.0 °F 30.23 in SE 4.9 mph 5.0 mph 86% 0.00 in meteobridge W/m2
09:29 45.1 °F 41.5 °F 30.23 in Calm   1.0 mph 87% 0.00 in meteobridge W/m2
09:34 45.1 °F 41.2 °F 30.23 in Calm     86% 0.00 in meteobridge W/m2
09:39 45.1 °F 41.2 °F 30.23 in Calm   5.0 mph 86% 0.00 in meteobridge W/m2
09:44 45.1 °F 41.2 °F 30.23 in Calm   1.0 mph 86% 0.00 in meteobridge W/m2
09:49 45.1 °F 41.5 °F 30.23 in Calm   4.0 mph 87% 0.00 in meteobridge W/m2
09:54 45.3 °F 41.7 °F 30.23 in Calm   1.0 mph 87% 0.00 in meteobridge W/m2
09:59 45.3 °F 41.7 °F 30.23 in Calm     87% 0.00 in meteobridge W/m2
10:04 45.7 °F 42.1 °F 30.21 in Calm   2.0 mph 87% 0.00 in meteobridge W/m2
10:09 45.9 °F 42.3 °F 30.22 in ESE 0.9 mph 2.0 mph 87% 0.00 in meteobridge W/m2
10:14 46.0 °F 42.4 °F 30.21 in Calm   2.0 mph 87% 0.00 in meteobridge W/m2
10:19 46.0 °F 42.4 °F 30.21 in Calm   4.0 mph 87% 0.00 in meteobridge W/m2
10:24 46.0 °F 42.1 °F 30.19 in Calm   4.0 mph 86% 0.00 in meteobridge W/m2
10:29 46.0 °F 41.7 °F 30.19 in Calm   8.0 mph 85% 0.00 in meteobridge W/m2
10:34 45.9 °F 41.9 °F 30.20 in ESE 4.0 mph 6.0 mph 86% 0.00 in meteobridge W/m2
10:39 46.0 °F 42.1 °F 30.20 in Calm   1.0 mph 86% 0.00 in meteobridge W/m2
10:44 46.0 °F 42.1 °F 30.20 in SE 4.0 mph 4.0 mph 86% 0.00 in meteobridge W/m2
10:49 46.0 °F 42.1 °F 30.21 in Calm   1.0 mph 86% 0.00 in meteobridge W/m2
10:54 46.2 °F 42.3 °F 30.20 in Calm     86% 0.00 in meteobridge W/m2
10:59 46.2 °F 42.3 °F 30.20 in Calm   2.0 mph 86% 0.00 in meteobridge W/m2
11:04 46.0 °F 42.1 °F 30.20 in Calm   1.0 mph 86% 0.00 in meteobridge W/m2
11:09 46.0 °F 42.1 °F 30.20 in SE 0.9 mph 4.0 mph 86% 0.00 in meteobridge W/m2
11:14 46.0 °F 42.1 °F 30.19 in SE 6.0 mph 7.0 mph 86% 0.00 in meteobridge W/m2
11:19 46.0 °F 42.4 °F 30.18 in Calm   4.0 mph 87% 0.00 in meteobridge W/m2
11:24 46.2 °F 42.6 °F 30.18 in Calm   5.0 mph 87% 0.00 in meteobridge W/m2
11:29 46.2 °F 42.6 °F 30.18 in ESE 0.9 mph 4.0 mph 87% 0.00 in meteobridge W/m2
11:34 46.6 °F 43.2 °F 30.17 in ESE 4.0 mph 4.0 mph 88% 0.00 in meteobridge W/m2
11:39 46.9 °F 43.3 °F 30.17 in Calm   4.0 mph 87% 0.00 in meteobridge W/m2
11:44 47.1 °F 43.5 °F 30.15 in Calm   4.0 mph 87% 0.00 in meteobridge W/m2
11:49 47.3 °F 43.7 °F 30.14 in East 0.9 mph 6.0 mph 87% 0.00 in meteobridge W/m2
11:54 47.5 °F 43.9 °F 30.14 in Calm   4.0 mph 87% 0.00 in meteobridge W/m2
11:59 47.7 °F 44.1 °F 30.13 in SSE 0.9 mph 7.0 mph 87% 0.00 in meteobridge W/m2
12:04 48.0 °F 43.7 °F 30.13 in Calm   4.0 mph 85% 0.00 in meteobridge W/m2
12:09 47.8 °F 43.5 °F 30.13 in Calm   2.0 mph 85% 0.00 in meteobridge W/m2
12:14 47.5 °F 43.5 °F 30.13 in Calm     86% 0.00 in meteobridge W/m2
12:19 47.1 °F 43.5 °F 30.13 in SE 0.9 mph 1.0 mph 87% 0.00 in meteobridge W/m2
12:24 47.1 °F 43.7 °F 30.14 in Calm   4.0 mph 88% 0.00 in meteobridge W/m2
12:29 47.1 °F 43.7 °F 30.12 in Calm   1.0 mph 88% 0.00 in meteobridge W/m2
12:34 47.1 °F 43.7 °F 30.12 in Calm   1.0 mph 88% 0.00 in meteobridge W/m2
12:39 47.1 °F 43.7 °F 30.11 in Calm   4.0 mph 88% 0.00 in meteobridge W/m2
12:44 47.1 °F 44.1 °F 30.10 in Calm     89% 0.00 in meteobridge W/m2
12:49 47.5 °F 44.4 °F 30.10 in Calm   2.0 mph 89% 0.00 in meteobridge W/m2
12:54 47.8 °F 44.4 °F 30.09 in ESE 0.9 mph 5.0 mph 88% 0.00 in meteobridge W/m2
12:59 48.0 °F 44.6 °F 30.09 in Calm   2.0 mph 88% 0.00 in meteobridge W/m2
13:04 48.0 °F 44.6 °F 30.08 in Calm   4.0 mph 88% 0.00 in meteobridge W/m2
13:09 48.6 °F 45.1 °F 30.06 in SE 2.0 mph 2.0 mph 88% 0.00 in meteobridge W/m2
13:14 49.3 °F 45.5 °F 30.06 in ESE 2.0 mph 2.0 mph 87% 0.00 in meteobridge W/m2
13:19 50.0 °F 46.0 °F 30.06 in Calm   2.0 mph 86% 0.00 in meteobridge W/m2
13:24 50.2 °F 45.9 °F 30.05 in Calm     85% 0.00 in meteobridge W/m2
13:29 50.4 °F 46.0 °F 30.04 in SE 4.0 mph 8.0 mph 85% 0.00 in meteobridge W/m2
13:34 51.1 °F 46.8 °F 30.04 in ESE 0.9 mph 8.0 mph 85% 0.00 in meteobridge W/m2
13:39 51.4 °F 46.8 °F 30.03 in Calm   5.0 mph 84% 0.00 in meteobridge W/m2
13:44 51.8 °F 46.8 °F 30.03 in Calm   4.0 mph 83% 0.00 in meteobridge W/m2
13:49 52.0 °F 46.9 °F 30.03 in ESE 4.0 mph 5.0 mph 83% 0.00 in meteobridge W/m2
13:54 52.0 °F 46.9 °F 30.03 in SSE 6.0 mph 6.0 mph 83% 0.00 in meteobridge W/m2
13:59 52.0 °F 46.9 °F 30.02 in Calm   2.0 mph 83% 0.00 in meteobridge W/m2
14:04 51.8 °F 46.8 °F 30.01 in Calm   5.0 mph 83% 0.00 in meteobridge W/m2
14:09 51.6 °F 46.9 °F 30.01 in SE 0.9 mph 1.0 mph 84% 0.00 in meteobridge W/m2
14:14 51.6 °F 47.3 °F 30.01 in East 4.0 mph 4.0 mph 85% 0.00 in meteobridge W/m2
14:19 51.4 °F 47.5 °F 30.00 in East 0.9 mph 2.0 mph 86% 0.00 in meteobridge W/m2
14:24 51.3 °F 47.5 °F 30.00 in SE 2.0 mph 2.0 mph 87% 0.00 in meteobridge W/m2
14:29 51.4 °F 47.5 °F 29.99 in ESE 4.0 mph 6.0 mph 86% 0.00 in meteobridge W/m2
14:34 51.4 °F 47.1 °F 29.99 in SE 8.9 mph 9.0 mph 85% 0.00 in meteobridge W/m2
14:39 51.3 °F 46.9 °F 29.98 in Calm   1.0 mph 85% 0.00 in meteobridge W/m2
14:44 50.7 °F 46.8 °F 29.98 in Calm     86% 0.00 in meteobridge W/m2
14:49 50.4 °F 46.4 °F 29.98 in Calm     86% 0.00 in meteobridge W/m2
14:54 50.2 °F 46.4 °F 29.97 in ENE 0.9 mph 5.0 mph 87% 0.00 in meteobridge W/m2
14:59 50.0 °F 46.2 °F 29.97 in Calm   7.0 mph 87% 0.00 in meteobridge W/m2
15:04 50.0 °F 46.2 °F 29.96 in SE 4.9 mph 5.0 mph 87% 0.00 in meteobridge W/m2
15:09 50.2 °F 46.4 °F 29.96 in ESE 2.0 mph 6.0 mph 87% 0.00 in meteobridge W/m2
15:14 50.4 °F 46.6 °F 29.96 in Calm   6.0 mph 87% 0.00 in meteobridge W/m2
15:19 50.4 °F 46.6 °F 29.95 in Calm   5.0 mph 87% 0.00 in meteobridge W/m2
15:24 50.4 °F 46.4 °F 29.95 in SE 2.0 mph 6.0 mph 86% 0.00 in meteobridge W/m2
15:29 50.5 °F 46.6 °F 29.94 in Calm     86% 0.00 in meteobridge W/m2
15:34 50.5 °F 46.6 °F 29.94 in ESE 0.9 mph 2.0 mph 86% 0.00 in meteobridge W/m2
15:39 50.5 °F 46.6 °F 29.94 in Calm     86% 0.00 in meteobridge W/m2
15:44 50.5 °F 46.6 °F 29.93 in Calm     86% 0.00 in meteobridge W/m2
15:49 50.4 °F 46.4 °F 29.93 in Calm     86% 0.00 in meteobridge W/m2
15:54 50.2 °F 46.2 °F 29.92 in Calm     86% 0.00 in meteobridge W/m2
15:59 50.2 °F 46.4 °F 29.93 in Calm     87% 0.00 in meteobridge W/m2
16:04 50.0 °F 46.2 °F 29.92 in Calm     87% 0.00 in meteobridge W/m2
16:09 50.0 °F 46.2 °F 29.92 in Calm     87% 0.00 in meteobridge W/m2
16:14 50.2 °F 46.4 °F 29.91 in Calm     87% 0.00 in meteobridge W/m2
16:19 50.4 °F 46.4 °F 29.90 in Calm     86% 0.00 in meteobridge W/m2
16:24 50.5 °F 46.6 °F 29.90 in Calm     86% 0.00 in meteobridge W/m2
16:29 50.7 °F 46.8 °F 29.90 in Calm     86% 0.00 in meteobridge W/m2
16:34 50.7 °F 46.4 °F 29.90 in Calm     85% 0.00 in meteobridge W/m2
16:39 50.7 °F 46.4 °F 29.90 in Calm     85% 0.00 in meteobridge W/m2
16:44 50.7 °F 46.4 °F 29.90 in Calm     85% 0.00 in meteobridge W/m2
16:49 50.7 °F 46.4 °F 29.90 in Calm     85% 0.00 in meteobridge W/m2
16:54 50.9 °F 46.6 °F 29.89 in Calm     85% 0.00 in meteobridge W/m2
16:59 50.9 °F 46.6 °F 29.89 in Calm     85% 0.00 in meteobridge W/m2
17:04 50.7 °F 46.4 °F 29.88 in Calm     85% 0.00 in meteobridge W/m2
17:09 50.7 °F 46.8 °F 29.88 in Calm     86% 0.00 in meteobridge W/m2
17:14 50.5 °F 46.8 °F 29.88 in Calm     87% 0.00 in meteobridge W/m2
17:19 50.2 °F 47.1 °F 29.87 in Calm     89% 0.00 in meteobridge W/m2
17:24 49.8 °F 46.9 °F 29.85 in Calm     90% 0.00 in meteobridge W/m2
17:29 49.6 °F 46.8 °F 29.85 in Calm     90% 0.00 in meteobridge W/m2
17:34 49.6 °F 47.1 °F 29.84 in Calm     91% 0.00 in meteobridge W/m2
17:39 49.6 °F 47.1 °F 29.85 in Calm     91% 0.00 in meteobridge W/m2
17:44 49.8 °F 47.3 °F 29.85 in Calm     91% 0.00 in meteobridge W/m2
17:49 50.2 °F 47.7 °F 29.84 in Calm     91% 0.00 in meteobridge W/m2
17:54 50.4 °F 47.5 °F 29.84 in Calm     90% 0.00 in meteobridge W/m2
17:59 50.5 °F 47.7 °F 29.83 in Calm     90% 0.00 in meteobridge W/m2
18:04 50.7 °F 47.7 °F 29.83 in Calm     89% 0.00 in meteobridge W/m2
18:09 51.1 °F 48.0 °F 29.83 in Calm     89% 0.00 in meteobridge W/m2
18:14 51.1 °F 48.0 °F 29.83 in Calm     89% 0.01 in meteobridge W/m2
18:19 50.7 °F 47.8 °F 29.83 in Calm     90% 0.01 in meteobridge W/m2
18:24 50.5 °F 48.4 °F 29.83 in Calm     92% 0.02 in meteobridge W/m2
18:29 50.4 °F 48.4 °F 29.83 in Calm     93% 0.03 in meteobridge W/m2
18:34 50.2 °F 48.2 °F 29.82 in Calm     93% 0.05 in meteobridge W/m2
18:39 50.2 °F 48.6 °F 29.82 in Calm     94% 0.07 in meteobridge W/m2
18:44 50.0 °F 48.4 °F 29.82 in Calm     94% 0.08 in meteobridge W/m2
18:49 50.0 °F 48.4 °F 29.81 in Calm     94% 0.09 in meteobridge W/m2
18:54 50.0 °F 48.4 °F 29.80 in Calm     94% 0.10 in meteobridge W/m2
18:59 50.2 °F 48.6 °F 29.80 in Calm     94% 0.11 in meteobridge W/m2
19:04 50.2 °F 48.6 °F 29.80 in Calm     94% 0.12 in meteobridge W/m2
19:09 50.2 °F 48.6 °F 29.81 in Calm     94% 0.14 in meteobridge W/m2
19:14 50.2 °F 48.7 °F 29.82 in Calm     95% 0.14 in meteobridge W/m2
19:19 50.2 °F 48.7 °F 29.83 in Calm     95% 0.16 in meteobridge W/m2
19:24 49.8 °F 48.7 °F 29.85 in Calm     96% 0.17 in meteobridge W/m2
19:29 50.0 °F 48.9 °F 29.87 in Calm     96% 0.20 in meteobridge W/m2
19:34 50.0 °F 48.9 °F 29.88 in Calm     96% 0.29 in meteobridge W/m2
19:39 50.4 °F 49.5 °F 29.88 in Calm     97% 0.31 in meteobridge W/m2
19:44 50.5 °F 49.6 °F 29.88 in Calm     97% 0.34 in meteobridge W/m2
19:49 50.7 °F 49.8 °F 29.87 in Calm     97% 0.37 in meteobridge W/m2
19:54 51.1 °F 50.2 °F 29.86 in Calm     97% 0.39 in meteobridge W/m2
19:59 51.1 °F 50.2 °F 29.85 in Calm     97% 0.41 in meteobridge W/m2
20:04 51.1 °F 50.2 °F 29.85 in Calm     97% 0.41 in meteobridge W/m2
20:09 51.1 °F 50.2 °F 29.84 in Calm     97% 0.42 in meteobridge W/m2
20:14 50.9 °F 50.0 °F 29.84 in Calm     97% 0.42 in meteobridge W/m2
20:19 50.9 °F 50.0 °F 29.83 in Calm     97% 0.41 in meteobridge W/m2
20:24 50.7 °F 49.8 °F 29.84 in Calm     97% 0.42 in meteobridge W/m2
20:29 50.5 °F 49.6 °F 29.84 in Calm     97% 0.39 in meteobridge W/m2
20:34 50.5 °F 49.6 °F 29.83 in Calm     97% 0.35 in meteobridge W/m2
20:39 50.5 °F 49.6 °F 29.83 in Calm     97% 0.33 in meteobridge W/m2
20:43 50.5 °F 49.6 °F 29.83 in Calm     97% 0.32 in meteobridge W/m2
20:49 50.5 °F 49.6 °F 29.83 in Calm     97% 0.30 in meteobridge W/m2
20:54 50.4 °F 49.5 °F 29.83 in Calm     97% 0.29 in meteobridge W/m2
20:59 50.4 °F 49.5 °F 29.83 in Calm     97% 0.29 in meteobridge W/m2
21:04 50.4 °F 49.5 °F 29.82 in Calm     97% 0.31 in meteobridge W/m2
21:09 50.2 °F 49.3 °F 29.82 in Calm     97% 0.31 in meteobridge W/m2
21:14 50.2 °F 49.3 °F 29.81 in Calm     97% 0.30 in meteobridge W/m2
21:19 50.0 °F 49.1 °F 29.81 in Calm     97% 0.30 in meteobridge W/m2
21:24 50.2 °F 49.6 °F 29.81 in Calm     98% 0.29 in meteobridge W/m2
21:29 50.2 °F 49.6 °F 29.81 in Calm     98% 0.28 in meteobridge W/m2
21:34 50.2 °F 49.6 °F 29.80 in Calm     98% 0.25 in meteobridge W/m2
21:39 50.4 °F 49.8 °F 29.79 in Calm     98% 0.23 in meteobridge W/m2
21:44 50.4 °F 49.8 °F 29.79 in Calm     98% 0.23 in meteobridge W/m2
21:49 50.4 °F 49.8 °F 29.79 in Calm     98% 0.23 in meteobridge W/m2
21:54 50.4 °F 49.8 °F 29.78 in Calm     98% 0.23 in meteobridge W/m2
21:59 50.4 °F 49.8 °F 29.78 in Calm     98% 0.23 in meteobridge W/m2
22:04 50.4 °F 49.8 °F 29.78 in Calm     98% 0.21 in meteobridge W/m2
22:09 50.4 °F 49.8 °F 29.77 in Calm     98% 0.21 in meteobridge W/m2
22:14 50.4 °F 49.8 °F 29.77 in Calm     98% 0.21 in meteobridge W/m2
22:19 50.4 °F 49.8 °F 29.78 in Calm     98% 0.20 in meteobridge W/m2
22:24 50.4 °F 49.8 °F 29.77 in Calm     98% 0.22 in meteobridge W/m2
22:29 50.4 °F 49.8 °F 29.75 in Calm     98% 0.21 in meteobridge W/m2
22:34 50.5 °F 50.0 °F 29.75 in Calm     98% 0.20 in meteobridge W/m2
22:39 50.4 °F 49.8 °F 29.75 in Calm     98% 0.19 in meteobridge W/m2
22:44 50.2 °F 49.3 °F 29.76 in Calm     97% 0.19 in meteobridge W/m2
22:49 50.2 °F 49.6 °F 29.75 in Calm     98% 0.17 in meteobridge W/m2
22:54 50.2 °F 49.6 °F 29.76 in Calm     98% 0.16 in meteobridge W/m2
22:59 50.4 °F 49.8 °F 29.76 in Calm     98% 0.14 in meteobridge W/m2
23:04 50.5 °F 50.0 °F 29.76 in Calm     98% 0.13 in meteobridge W/m2
23:09 50.5 °F 50.0 °F 29.76 in Calm     98% 0.13 in meteobridge W/m2
23:14 50.5 °F 50.0 °F 29.76 in Calm     98% 0.13 in meteobridge W/m2
23:19 50.5 °F 50.0 °F 29.77 in Calm     98% 0.14 in meteobridge W/m2
23:24 50.5 °F 50.0 °F 29.77 in Calm     98% 0.15 in meteobridge W/m2
23:29 50.5 °F 50.0 °F 29.78 in Calm     98% 0.14 in meteobridge W/m2
23:34 50.5 °F 50.0 °F 29.78 in Calm     98% 0.15 in meteobridge W/m2
23:39 50.5 °F 50.0 °F 29.78 in Calm     98% 0.16 in meteobridge W/m2
23:44 50.5 °F 50.0 °F 29.78 in Calm     98% 0.16 in meteobridge W/m2
23:49 50.4 °F 49.8 °F 29.77 in Calm     98% 0.17 in meteobridge W/m2
23:54 50.4 °F 49.8 °F 29.77 in Calm     98% 0.17 in meteobridge W/m2
23:59 50.4 °F 49.8 °F 29.76 in Calm     98% 0.17 in meteobridge W/m2
EllijayWeather
Compliments of Weather Underground - 2.5 mb